sensor_id;sensor_type;location;lat;lon;timestamp;P1;durP1;ratioP1;P2;durP2;ratioP2
26211;SDS011;13951;49.516;6.094;2023-08-21T00:02:06;3.50;;;1.23;;
26211;SDS011;13951;49.516;6.094;2023-08-21T00:04:39;2.83;;;1.20;;
26211;SDS011;13951;49.516;6.094;2023-08-21T00:07:12;1.65;;;1.30;;
26211;SDS011;13951;49.516;6.094;2023-08-21T00:09:46;2.45;;;1.60;;
26211;SDS011;13951;49.516;6.094;2023-08-21T00:12:19;2.05;;;1.30;;
26211;SDS011;13951;49.516;6.094;2023-08-21T00:14:52;2.28;;;1.50;;
26211;SDS011;13951;49.516;6.094;2023-08-21T00:17:25;1.67;;;1.30;;
26211;SDS011;13951;49.516;6.094;2023-08-21T00:19:58;2.40;;;1.38;;
26211;SDS011;13951;49.516;6.094;2023-08-21T00:22:32;1.67;;;1.52;;
26211;SDS011;13951;49.516;6.094;2023-08-21T00:25:05;3.08;;;1.35;;
26211;SDS011;13951;49.516;6.094;2023-08-21T00:27:38;1.88;;;1.48;;
26211;SDS011;13951;49.516;6.094;2023-08-21T00:30:12;3.28;;;1.50;;
26211;SDS011;13951;49.516;6.094;2023-08-21T00:32:47;4.10;;;1.70;;
26211;SDS011;13951;49.516;6.094;2023-08-21T00:35:20;2.00;;;1.40;;
26211;SDS011;13951;49.516;6.094;2023-08-21T00:37:53;1.92;;;1.73;;
26211;SDS011;13951;49.516;6.094;2023-08-21T00:40:26;6.82;;;1.70;;
26211;SDS011;13951;49.516;6.094;2023-08-21T00:42:59;6.32;;;1.60;;
26211;SDS011;13951;49.516;6.094;2023-08-21T00:45:33;2.53;;;1.67;;
26211;SDS011;13951;49.516;6.094;2023-08-21T00:48:08;3.13;;;1.67;;
26211;SDS011;13951;49.516;6.094;2023-08-21T00:50:44;5.28;;;2.15;;
26211;SDS011;13951;49.516;6.094;2023-08-21T00:53:17;3.35;;;1.63;;
26211;SDS011;13951;49.516;6.094;2023-08-21T00:55:51;2.22;;;1.40;;
26211;SDS011;13951;49.516;6.094;2023-08-21T00:58:25;2.90;;;1.60;;
26211;SDS011;13951;49.516;6.094;2023-08-21T01:00:58;2.33;;;1.45;;
26211;SDS011;13951;49.516;6.094;2023-08-21T01:03:32;3.85;;;1.55;;
26211;SDS011;13951;49.516;6.094;2023-08-21T01:06:05;3.05;;;1.52;;
26211;SDS011;13951;49.516;6.094;2023-08-21T01:08:40;3.15;;;1.48;;
26211;SDS011;13951;49.516;6.094;2023-08-21T01:12:06;7.03;;;1.75;;
26211;SDS011;13951;49.516;6.094;2023-08-21T01:14:25;4.13;;;1.50;;
26211;SDS011;13951;49.516;6.094;2023-08-21T01:17:03;4.03;;;1.45;;
26211;SDS011;13951;49.516;6.094;2023-08-21T01:19:38;6.85;;;1.40;;
26211;SDS011;13951;49.516;6.094;2023-08-21T01:22:14;1.83;;;1.05;;
26211;SDS011;13951;49.516;6.094;2023-08-21T01:24:47;2.00;;;1.50;;
26211;SDS011;13951;49.516;6.094;2023-08-21T01:27:21;5.95;;;1.20;;
26211;SDS011;13951;49.516;6.094;2023-08-21T01:29:55;4.05;;;1.45;;
26211;SDS011;13951;49.516;6.094;2023-08-21T01:32:48;2.85;;;1.20;;
26211;SDS011;13951;49.516;6.094;2023-08-21T01:35:31;1.48;;;1.25;;
26211;SDS011;13951;49.516;6.094;2023-08-21T01:38:08;2.22;;;1.20;;
26211;SDS011;13951;49.516;6.094;2023-08-21T01:40:41;2.72;;;1.40;;
26211;SDS011;13951;49.516;6.094;2023-08-21T01:43:15;1.65;;;1.10;;
26211;SDS011;13951;49.516;6.094;2023-08-21T01:45:50;2.25;;;1.35;;
26211;SDS011;13951;49.516;6.094;2023-08-21T01:48:24;5.68;;;1.60;;
26211;SDS011;13951;49.516;6.094;2023-08-21T01:50:57;3.97;;;1.40;;
26211;SDS011;13951;49.516;6.094;2023-08-21T01:53:33;2.70;;;1.40;;
26211;SDS011;13951;49.516;6.094;2023-08-21T01:56:06;2.05;;;1.40;;
26211;SDS011;13951;49.516;6.094;2023-08-21T01:58:40;1.80;;;1.10;;
26211;SDS011;13951;49.516;6.094;2023-08-21T02:01:17;2.10;;;1.63;;
26211;SDS011;13951;49.516;6.094;2023-08-21T02:03:51;3.33;;;1.50;;
26211;SDS011;13951;49.516;6.094;2023-08-21T02:06:24;1.65;;;1.50;;
26211;SDS011;13951;49.516;6.094;2023-08-21T02:08:57;3.13;;;1.42;;
26211;SDS011;13951;49.516;6.094;2023-08-21T02:11:30;1.40;;;1.30;;
26211;SDS011;13951;49.516;6.094;2023-08-21T02:14:04;1.98;;;1.55;;
26211;SDS011;13951;49.516;6.094;2023-08-21T02:16:38;1.92;;;1.42;;
26211;SDS011;13951;49.516;6.094;2023-08-21T02:19:11;1.67;;;1.25;;
26211;SDS011;13951;49.516;6.094;2023-08-21T02:21:44;3.15;;;1.50;;
26211;SDS011;13951;49.516;6.094;2023-08-21T02:24:17;3.28;;;1.52;;
26211;SDS011;13951;49.516;6.094;2023-08-21T02:26:50;1.50;;;1.40;;
26211;SDS011;13951;49.516;6.094;2023-08-21T02:29:24;1.92;;;1.42;;
26211;SDS011;13951;49.516;6.094;2023-08-21T02:31:57;4.32;;;1.83;;
26211;SDS011;13951;49.516;6.094;2023-08-21T02:34:31;2.08;;;1.60;;
26211;SDS011;13951;49.516;6.094;2023-08-21T02:37:04;3.80;;;1.42;;
26211;SDS011;13951;49.516;6.094;2023-08-21T02:39:37;3.28;;;1.55;;
26211;SDS011;13951;49.516;6.094;2023-08-21T02:42:12;2.05;;;1.23;;
26211;SDS011;13951;49.516;6.094;2023-08-21T02:44:45;1.63;;;1.40;;
26211;SDS011;13951;49.516;6.094;2023-08-21T02:47:19;5.03;;;1.60;;
26211;SDS011;13951;49.516;6.094;2023-08-21T02:49:52;3.08;;;1.75;;
26211;SDS011;13951;49.516;6.094;2023-08-21T02:52:25;1.42;;;1.25;;
26211;SDS011;13951;49.516;6.094;2023-08-21T02:54:59;2.17;;;1.40;;
26211;SDS011;13951;49.516;6.094;2023-08-21T02:57:32;2.50;;;1.42;;
26211;SDS011;13951;49.516;6.094;2023-08-21T03:00:06;4.07;;;1.30;;
26211;SDS011;13951;49.516;6.094;2023-08-21T03:02:43;4.97;;;1.40;;
26211;SDS011;13951;49.516;6.094;2023-08-21T03:05:17;2.55;;;1.35;;
26211;SDS011;13951;49.516;6.094;2023-08-21T03:07:50;1.75;;;1.35;;
26211;SDS011;13951;49.516;6.094;2023-08-21T03:10:23;2.08;;;1.30;;
26211;SDS011;13951;49.516;6.094;2023-08-21T03:12:56;3.25;;;1.33;;
26211;SDS011;13951;49.516;6.094;2023-08-21T03:15:29;4.43;;;1.60;;
26211;SDS011;13951;49.516;6.094;2023-08-21T03:18:04;3.00;;;1.40;;
26211;SDS011;13951;49.516;6.094;2023-08-21T03:20:37;5.85;;;1.40;;
26211;SDS011;13951;49.516;6.094;2023-08-21T03:23:10;1.92;;;1.30;;
26211;SDS011;13951;49.516;6.094;2023-08-21T03:25:44;2.00;;;1.20;;
26211;SDS011;13951;49.516;6.094;2023-08-21T03:28:17;2.15;;;1.35;;
26211;SDS011;13951;49.516;6.094;2023-08-21T03:30:52;1.58;;;1.42;;
26211;SDS011;13951;49.516;6.094;2023-08-21T03:33:25;2.40;;;1.40;;
26211;SDS011;13951;49.516;6.094;2023-08-21T03:35:59;2.15;;;1.33;;
26211;SDS011;13951;49.516;6.094;2023-08-21T03:38:32;1.75;;;1.30;;
26211;SDS011;13951;49.516;6.094;2023-08-21T03:41:05;4.20;;;1.48;;
26211;SDS011;13951;49.516;6.094;2023-08-21T03:43:39;2.33;;;1.50;;
26211;SDS011;13951;49.516;6.094;2023-08-21T03:46:12;2.50;;;1.35;;
26211;SDS011;13951;49.516;6.094;2023-08-21T03:48:47;2.08;;;1.42;;
26211;SDS011;13951;49.516;6.094;2023-08-21T03:51:20;2.83;;;1.52;;
26211;SDS011;13951;49.516;6.094;2023-08-21T03:53:55;2.70;;;1.48;;
26211;SDS011;13951;49.516;6.094;2023-08-21T03:56:28;1.63;;;1.40;;
26211;SDS011;13951;49.516;6.094;2023-08-21T03:59:01;3.25;;;1.63;;
26211;SDS011;13951;49.516;6.094;2023-08-21T04:01:35;2.53;;;1.40;;
26211;SDS011;13951;49.516;6.094;2023-08-21T04:04:09;3.30;;;1.70;;
26211;SDS011;13951;49.516;6.094;2023-08-21T04:06:42;4.03;;;1.50;;
26211;SDS011;13951;49.516;6.094;2023-08-21T04:09:17;3.97;;;1.70;;
26211;SDS011;13951;49.516;6.094;2023-08-21T04:11:50;8.18;;;1.92;;
26211;SDS011;13951;49.516;6.094;2023-08-21T04:14:23;1.95;;;1.58;;
26211;SDS011;13951;49.516;6.094;2023-08-21T04:16:56;4.90;;;1.90;;
26211;SDS011;13951;49.516;6.094;2023-08-21T04:19:29;2.70;;;1.70;;
26211;SDS011;13951;49.516;6.094;2023-08-21T04:22:06;3.75;;;1.70;;
26211;SDS011;13951;49.516;6.094;2023-08-21T04:24:40;4.53;;;1.90;;
26211;SDS011;13951;49.516;6.094;2023-08-21T04:27:14;5.95;;;1.85;;
26211;SDS011;13951;49.516;6.094;2023-08-21T04:29:47;3.88;;;1.70;;
26211;SDS011;13951;49.516;6.094;2023-08-21T04:32:20;2.22;;;1.67;;
26211;SDS011;13951;49.516;6.094;2023-08-21T04:34:55;2.30;;;1.60;;
26211;SDS011;13951;49.516;6.094;2023-08-21T04:37:28;1.67;;;1.50;;
26211;SDS011;13951;49.516;6.094;2023-08-21T04:40:01;2.83;;;1.60;;
26211;SDS011;13951;49.516;6.094;2023-08-21T04:42:35;2.70;;;1.58;;
26211;SDS011;13951;49.516;6.094;2023-08-21T04:45:08;1.60;;;1.50;;
26211;SDS011;13951;49.516;6.094;2023-08-21T04:47:43;3.65;;;1.67;;
26211;SDS011;13951;49.516;6.094;2023-08-21T04:50:16;2.40;;;1.60;;
26211;SDS011;13951;49.516;6.094;2023-08-21T04:52:50;4.38;;;1.73;;
26211;SDS011;13951;49.516;6.094;2023-08-21T04:55:23;2.70;;;1.63;;
26211;SDS011;13951;49.516;6.094;2023-08-21T04:57:57;3.33;;;1.83;;
26211;SDS011;13951;49.516;6.094;2023-08-21T05:00:30;4.22;;;1.65;;
26211;SDS011;13951;49.516;6.094;2023-08-21T05:03:05;3.90;;;1.83;;
26211;SDS011;13951;49.516;6.094;2023-08-21T05:05:38;1.75;;;1.60;;
26211;SDS011;13951;49.516;6.094;2023-08-21T05:08:12;3.65;;;1.80;;
26211;SDS011;13951;49.516;6.094;2023-08-21T05:10:45;4.35;;;1.90;;
26211;SDS011;13951;49.516;6.094;2023-08-21T05:13:18;7.68;;;2.03;;
26211;SDS011;13951;49.516;6.094;2023-08-21T05:15:54;2.03;;;1.80;;
26211;SDS011;13951;49.516;6.094;2023-08-21T05:18:33;5.65;;;1.83;;
26211;SDS011;13951;49.516;6.094;2023-08-21T05:21:06;2.20;;;1.70;;
26211;SDS011;13951;49.516;6.094;2023-08-21T05:23:41;4.50;;;1.80;;
26211;SDS011;13951;49.516;6.094;2023-08-21T05:26:15;3.90;;;2.17;;
26211;SDS011;13951;49.516;6.094;2023-08-21T05:28:48;2.22;;;1.70;;
26211;SDS011;13951;49.516;6.094;2023-08-21T05:31:21;4.20;;;1.85;;
26211;SDS011;13951;49.516;6.094;2023-08-21T05:33:58;4.25;;;1.90;;
26211;SDS011;13951;49.516;6.094;2023-08-21T05:36:31;2.92;;;2.00;;
26211;SDS011;13951;49.516;6.094;2023-08-21T05:39:05;2.22;;;1.90;;
26211;SDS011;13951;49.516;6.094;2023-08-21T05:41:39;5.60;;;1.60;;
26211;SDS011;13951;49.516;6.094;2023-08-21T05:44:13;5.18;;;1.80;;
26211;SDS011;13951;49.516;6.094;2023-08-21T05:46:46;3.30;;;1.90;;
26211;SDS011;13951;49.516;6.094;2023-08-21T05:49:21;2.10;;;1.65;;
26211;SDS011;13951;49.516;6.094;2023-08-21T05:51:55;4.03;;;2.05;;
26211;SDS011;13951;49.516;6.094;2023-08-21T05:54:31;3.88;;;2.00;;
26211;SDS011;13951;49.516;6.094;2023-08-21T05:57:05;3.72;;;1.88;;
26211;SDS011;13951;49.516;6.094;2023-08-21T05:59:46;3.22;;;1.90;;
26211;SDS011;13951;49.516;6.094;2023-08-21T06:02:21;2.72;;;2.22;;
26211;SDS011;13951;49.516;6.094;2023-08-21T06:04:54;2.53;;;2.05;;
26211;SDS011;13951;49.516;6.094;2023-08-21T06:07:29;4.03;;;2.30;;
26211;SDS011;13951;49.516;6.094;2023-08-21T06:10:02;5.63;;;2.45;;
26211;SDS011;13951;49.516;6.094;2023-08-21T06:12:37;4.55;;;2.22;;
26211;SDS011;13951;49.516;6.094;2023-08-21T06:15:14;2.78;;;1.77;;
26211;SDS011;13951;49.516;6.094;2023-08-21T06:17:47;6.43;;;2.33;;
26211;SDS011;13951;49.516;6.094;2023-08-21T06:20:20;3.35;;;2.30;;
26211;SDS011;13951;49.516;6.094;2023-08-21T06:22:53;4.65;;;2.38;;
26211;SDS011;13951;49.516;6.094;2023-08-21T06:25:26;4.15;;;2.70;;
26211;SDS011;13951;49.516;6.094;2023-08-21T06:28:00;5.43;;;2.70;;
26211;SDS011;13951;49.516;6.094;2023-08-21T06:30:33;3.20;;;2.75;;
26211;SDS011;13951;49.516;6.094;2023-08-21T06:33:06;3.63;;;2.53;;
26211;SDS011;13951;49.516;6.094;2023-08-21T06:35:39;4.90;;;2.67;;
26211;SDS011;13951;49.516;6.094;2023-08-21T06:38:12;5.57;;;2.80;;
26211;SDS011;13951;49.516;6.094;2023-08-21T06:40:46;5.22;;;2.95;;
26211;SDS011;13951;49.516;6.094;2023-08-21T06:43:19;3.53;;;2.83;;
26211;SDS011;13951;49.516;6.094;2023-08-21T06:45:55;8.57;;;3.22;;
26211;SDS011;13951;49.516;6.094;2023-08-21T06:48:28;4.10;;;3.03;;
26211;SDS011;13951;49.516;6.094;2023-08-21T06:51:01;4.10;;;2.90;;
26211;SDS011;13951;49.516;6.094;2023-08-21T06:53:36;4.45;;;3.08;;
26211;SDS011;13951;49.516;6.094;2023-08-21T06:56:09;4.93;;;3.08;;
26211;SDS011;13951;49.516;6.094;2023-08-21T06:58:42;7.25;;;3.17;;
26211;SDS011;13951;49.516;6.094;2023-08-21T07:01:15;5.88;;;2.85;;
26211;SDS011;13951;49.516;6.094;2023-08-21T07:03:49;4.03;;;3.10;;
26211;SDS011;13951;49.516;6.094;2023-08-21T07:06:22;3.72;;;2.85;;
26211;SDS011;13951;49.516;6.094;2023-08-21T07:08:55;5.07;;;3.03;;
26211;SDS011;13951;49.516;6.094;2023-08-21T07:11:29;3.90;;;2.80;;
26211;SDS011;13951;49.516;6.094;2023-08-21T07:14:02;3.17;;;2.75;;
26211;SDS011;13951;49.516;6.094;2023-08-21T07:16:36;4.70;;;2.88;;
26211;SDS011;13951;49.516;6.094;2023-08-21T07:19:09;6.50;;;3.15;;
26211;SDS011;13951;49.516;6.094;2023-08-21T07:21:42;4.65;;;3.00;;
26211;SDS011;13951;49.516;6.094;2023-08-21T07:24:15;4.03;;;3.10;;
26211;SDS011;13951;49.516;6.094;2023-08-21T07:26:49;4.13;;;3.20;;
26211;SDS011;13951;49.516;6.094;2023-08-21T07:29:22;4.20;;;3.33;;
26211;SDS011;13951;49.516;6.094;2023-08-21T07:31:56;5.50;;;3.17;;
26211;SDS011;13951;49.516;6.094;2023-08-21T07:34:29;4.47;;;3.38;;
26211;SDS011;13951;49.516;6.094;2023-08-21T07:37:02;3.90;;;2.95;;
26211;SDS011;13951;49.516;6.094;2023-08-21T07:39:35;5.60;;;3.17;;
26211;SDS011;13951;49.516;6.094;2023-08-21T07:42:10;5.90;;;2.72;;
26211;SDS011;13951;49.516;6.094;2023-08-21T07:44:44;4.35;;;3.17;;
26211;SDS011;13951;49.516;6.094;2023-08-21T07:47:18;6.18;;;3.00;;
26211;SDS011;13951;49.516;6.094;2023-08-21T07:49:51;3.75;;;2.92;;
26211;SDS011;13951;49.516;6.094;2023-08-21T07:52:26;3.60;;;2.53;;
26211;SDS011;13951;49.516;6.094;2023-08-21T07:54:59;3.35;;;2.90;;
26211;SDS011;13951;49.516;6.094;2023-08-21T07:57:33;4.53;;;3.00;;
26211;SDS011;13951;49.516;6.094;2023-08-21T08:00:06;5.57;;;3.10;;
26211;SDS011;13951;49.516;6.094;2023-08-21T08:02:44;4.13;;;3.00;;
26211;SDS011;13951;49.516;6.094;2023-08-21T08:05:17;3.65;;;2.63;;
26211;SDS011;13951;49.516;6.094;2023-08-21T08:07:50;3.63;;;2.88;;
26211;SDS011;13951;49.516;6.094;2023-08-21T08:10:24;3.65;;;2.88;;
26211;SDS011;13951;49.516;6.094;2023-08-21T08:12:57;4.72;;;2.60;;
26211;SDS011;13951;49.516;6.094;2023-08-21T08:15:30;3.38;;;2.42;;
26211;SDS011;13951;49.516;6.094;2023-08-21T08:18:03;4.90;;;2.72;;
26211;SDS011;13951;49.516;6.094;2023-08-21T08:20:38;3.95;;;3.03;;
26211;SDS011;13951;49.516;6.094;2023-08-21T08:23:11;7.35;;;3.35;;
26211;SDS011;13951;49.516;6.094;2023-08-21T08:25:44;6.13;;;3.75;;
26211;SDS011;13951;49.516;6.094;2023-08-21T08:28:18;5.60;;;3.20;;
26211;SDS011;13951;49.516;6.094;2023-08-21T08:30:51;4.50;;;2.60;;
26211;SDS011;13951;49.516;6.094;2023-08-21T08:33:24;4.57;;;3.03;;
26211;SDS011;13951;49.516;6.094;2023-08-21T08:35:57;6.88;;;2.90;;
26211;SDS011;13951;49.516;6.094;2023-08-21T08:38:31;6.97;;;2.83;;
26211;SDS011;13951;49.516;6.094;2023-08-21T08:41:06;3.55;;;2.45;;
26211;SDS011;13951;49.516;6.094;2023-08-21T08:43:52;3.85;;;2.78;;
26211;SDS011;13951;49.516;6.094;2023-08-21T08:46:29;8.88;;;6.47;;
26211;SDS011;13951;49.516;6.094;2023-08-21T08:49:03;8.52;;;5.93;;
26211;SDS011;13951;49.516;6.094;2023-08-21T08:51:36;4.65;;;2.85;;
26211;SDS011;13951;49.516;6.094;2023-08-21T08:54:12;3.97;;;2.65;;
26211;SDS011;13951;49.516;6.094;2023-08-21T08:56:45;5.30;;;2.40;;
26211;SDS011;13951;49.516;6.094;2023-08-21T08:59:21;3.10;;;2.08;;
26211;SDS011;13951;49.516;6.094;2023-08-21T09:01:54;3.08;;;2.45;;
26211;SDS011;13951;49.516;6.094;2023-08-21T09:04:27;3.03;;;2.03;;
26211;SDS011;13951;49.516;6.094;2023-08-21T09:07:07;3.28;;;2.00;;
26211;SDS011;13951;49.516;6.094;2023-08-21T09:09:44;2.03;;;1.85;;
26211;SDS011;13951;49.516;6.094;2023-08-21T09:12:19;2.78;;;1.90;;
26211;SDS011;13951;49.516;6.094;2023-08-21T09:14:52;3.20;;;1.70;;
26211;SDS011;13951;49.516;6.094;2023-08-21T09:17:26;4.25;;;1.92;;
26211;SDS011;13951;49.516;6.094;2023-08-21T09:20:06;2.45;;;1.95;;
26211;SDS011;13951;49.516;6.094;2023-08-21T09:22:43;2.53;;;1.70;;
26211;SDS011;13951;49.516;6.094;2023-08-21T09:25:26;3.65;;;1.90;;
26211;SDS011;13951;49.516;6.094;2023-08-21T09:28:03;3.78;;;1.73;;
26211;SDS011;13951;49.516;6.094;2023-08-21T09:33:21;2.85;;;2.42;;
26211;SDS011;13951;49.516;6.094;2023-08-21T09:35:56;3.90;;;2.63;;
26211;SDS011;13951;49.516;6.094;2023-08-21T09:38:29;10.10;;;6.60;;
26211;SDS011;13951;49.516;6.094;2023-08-21T09:41:02;3.35;;;2.47;;
26211;SDS011;13951;49.516;6.094;2023-08-21T09:43:40;3.50;;;2.40;;
26211;SDS011;13951;49.516;6.094;2023-08-21T09:46:15;3.20;;;2.13;;
26211;SDS011;13951;49.516;6.094;2023-08-21T09:48:51;3.60;;;2.00;;
26211;SDS011;13951;49.516;6.094;2023-08-21T09:51:25;4.65;;;2.20;;
26211;SDS011;13951;49.516;6.094;2023-08-21T09:53:59;2.88;;;2.00;;
26211;SDS011;13951;49.516;6.094;2023-08-21T09:56:36;3.22;;;2.13;;
26211;SDS011;13951;49.516;6.094;2023-08-21T09:59:09;3.80;;;2.30;;
26211;SDS011;13951;49.516;6.094;2023-08-21T10:01:48;3.63;;;2.00;;
26211;SDS011;13951;49.516;6.094;2023-08-21T10:04:23;3.67;;;2.35;;
26211;SDS011;13951;49.516;6.094;2023-08-21T10:07:00;4.43;;;2.08;;
26211;SDS011;13951;49.516;6.094;2023-08-21T10:09:35;3.70;;;1.70;;
26211;SDS011;13951;49.516;6.094;2023-08-21T10:12:12;4.93;;;2.00;;
26211;SDS011;13951;49.516;6.094;2023-08-21T10:14:47;4.15;;;2.05;;
26211;SDS011;13951;49.516;6.094;2023-08-21T10:17:21;3.17;;;1.80;;
26211;SDS011;13951;49.516;6.094;2023-08-21T10:19:55;3.20;;;2.03;;
26211;SDS011;13951;49.516;6.094;2023-08-21T10:22:36;3.45;;;2.00;;
26211;SDS011;13951;49.516;6.094;2023-08-21T10:25:21;2.60;;;2.17;;
26211;SDS011;13951;49.516;6.094;2023-08-21T10:28:02;2.05;;;1.73;;
26211;SDS011;13951;49.516;6.094;2023-08-21T10:30:37;2.85;;;1.75;;
26211;SDS011;13951;49.516;6.094;2023-08-21T10:33:11;2.25;;;1.70;;
26211;SDS011;13951;49.516;6.094;2023-08-21T10:35:44;4.32;;;1.80;;
26211;SDS011;13951;49.516;6.094;2023-08-21T10:38:17;2.55;;;1.48;;
26211;SDS011;13951;49.516;6.094;2023-08-21T10:41:03;2.03;;;1.45;;
26211;SDS011;13951;49.516;6.094;2023-08-21T10:46:13;2.28;;;1.42;;
26211;SDS011;13951;49.516;6.094;2023-08-21T10:48:48;2.15;;;1.65;;
26211;SDS011;13951;49.516;6.094;2023-08-21T10:51:21;2.70;;;2.00;;
26211;SDS011;13951;49.516;6.094;2023-08-21T10:53:54;5.07;;;1.80;;
26211;SDS011;13951;49.516;6.094;2023-08-21T10:56:27;2.88;;;1.73;;
26211;SDS011;13951;49.516;6.094;2023-08-21T10:59:04;1.63;;;1.50;;
26211;SDS011;13951;49.516;6.094;2023-08-21T11:01:43;3.00;;;1.50;;
26211;SDS011;13951;49.516;6.094;2023-08-21T11:04:17;3.97;;;1.73;;
26211;SDS011;13951;49.516;6.094;2023-08-21T11:06:51;3.45;;;1.80;;
26211;SDS011;13951;49.516;6.094;2023-08-21T11:09:27;4.55;;;3.00;;
26211;SDS011;13951;49.516;6.094;2023-08-21T11:12:04;2.55;;;1.70;;
26211;SDS011;13951;49.516;6.094;2023-08-21T11:14:39;1.70;;;1.25;;
26211;SDS011;13951;49.516;6.094;2023-08-21T11:17:13;2.42;;;1.33;;
26211;SDS011;13951;49.516;6.094;2023-08-21T11:19:46;2.15;;;1.50;;
26211;SDS011;13951;49.516;6.094;2023-08-21T11:22:31;2.45;;;1.52;;
26211;SDS011;13951;49.516;6.094;2023-08-21T11:25:05;1.80;;;1.50;;
26211;SDS011;13951;49.516;6.094;2023-08-21T11:27:39;1.50;;;1.40;;
26211;SDS011;13951;49.516;6.094;2023-08-21T11:30:12;2.25;;;1.50;;
26211;SDS011;13951;49.516;6.094;2023-08-21T11:32:47;2.15;;;1.30;;
26211;SDS011;13951;49.516;6.094;2023-08-21T11:35:22;2.70;;;1.20;;
26211;SDS011;13951;49.516;6.094;2023-08-21T11:37:55;2.03;;;1.38;;
26211;SDS011;13951;49.516;6.094;2023-08-21T11:40:28;2.03;;;1.40;;
26211;SDS011;13951;49.516;6.094;2023-08-21T11:43:01;2.38;;;1.48;;
26211;SDS011;13951;49.516;6.094;2023-08-21T11:45:36;4.20;;;1.30;;
26211;SDS011;13951;49.516;6.094;2023-08-21T11:48:28;2.80;;;1.20;;
26211;SDS011;13951;49.516;6.094;2023-08-21T11:51:02;3.00;;;1.50;;
26211;SDS011;13951;49.516;6.094;2023-08-21T11:53:36;1.40;;;1.25;;
26211;SDS011;13951;49.516;6.094;2023-08-21T11:56:12;2.60;;;1.30;;
26211;SDS011;13951;49.516;6.094;2023-08-21T11:58:47;1.35;;;1.25;;
26211;SDS011;13951;49.516;6.094;2023-08-21T12:01:21;1.50;;;1.33;;
26211;SDS011;13951;49.516;6.094;2023-08-21T12:03:55;2.03;;;1.20;;
26211;SDS011;13951;49.516;6.094;2023-08-21T12:06:29;2.03;;;1.15;;
26211;SDS011;13951;49.516;6.094;2023-08-21T12:09:05;3.55;;;2.05;;
26211;SDS011;13951;49.516;6.094;2023-08-21T12:11:38;4.10;;;2.75;;
26211;SDS011;13951;49.516;6.094;2023-08-21T12:14:11;2.58;;;1.90;;
26211;SDS011;13951;49.516;6.094;2023-08-21T12:16:44;3.10;;;1.50;;
26211;SDS011;13951;49.516;6.094;2023-08-21T12:19:17;1.85;;;1.23;;
26211;SDS011;13951;49.516;6.094;2023-08-21T12:21:50;2.25;;;2.03;;
26211;SDS011;13951;49.516;6.094;2023-08-21T12:24:24;2.33;;;1.38;;
26211;SDS011;13951;49.516;6.094;2023-08-21T12:26:57;1.88;;;1.50;;
26211;SDS011;13951;49.516;6.094;2023-08-21T12:29:30;1.83;;;1.40;;
26211;SDS011;13951;49.516;6.094;2023-08-21T12:32:03;2.92;;;1.70;;
26211;SDS011;13951;49.516;6.094;2023-08-21T12:34:37;1.83;;;1.42;;
26211;SDS011;13951;49.516;6.094;2023-08-21T12:37:10;1.38;;;1.25;;
26211;SDS011;13951;49.516;6.094;2023-08-21T12:39:43;3.05;;;1.52;;
26211;SDS011;13951;49.516;6.094;2023-08-21T12:42:16;2.25;;;1.33;;
26211;SDS011;13951;49.516;6.094;2023-08-21T12:44:49;2.10;;;1.60;;
26211;SDS011;13951;49.516;6.094;2023-08-21T12:47:22;2.30;;;1.50;;
26211;SDS011;13951;49.516;6.094;2023-08-21T12:49:55;3.08;;;1.52;;
26211;SDS011;13951;49.516;6.094;2023-08-21T12:52:29;4.25;;;1.30;;
26211;SDS011;13951;49.516;6.094;2023-08-21T12:55:02;2.05;;;1.38;;
26211;SDS011;13951;49.516;6.094;2023-08-21T12:57:39;11.73;;;8.00;;
26211;SDS011;13951;49.516;6.094;2023-08-21T13:00:13;3.15;;;2.72;;
26211;SDS011;13951;49.516;6.094;2023-08-21T13:02:46;1.95;;;1.70;;
26211;SDS011;13951;49.516;6.094;2023-08-21T13:05:19;2.30;;;1.70;;
26211;SDS011;13951;49.516;6.094;2023-08-21T13:07:52;2.30;;;1.52;;
26211;SDS011;13951;49.516;6.094;2023-08-21T13:10:26;1.50;;;1.40;;
26211;SDS011;13951;49.516;6.094;2023-08-21T13:12:59;1.42;;;1.33;;
26211;SDS011;13951;49.516;6.094;2023-08-21T13:15:32;1.88;;;1.65;;
26211;SDS011;13951;49.516;6.094;2023-08-21T13:18:05;2.85;;;1.52;;
26211;SDS011;13951;49.516;6.094;2023-08-21T13:20:38;1.65;;;1.55;;
26211;SDS011;13951;49.516;6.094;2023-08-21T13:23:11;2.40;;;1.45;;
26211;SDS011;13951;49.516;6.094;2023-08-21T13:25:45;3.83;;;1.45;;
26211;SDS011;13951;49.516;6.094;2023-08-21T13:28:18;2.05;;;1.40;;
26211;SDS011;13951;49.516;6.094;2023-08-21T13:30:51;2.97;;;1.30;;
26211;SDS011;13951;49.516;6.094;2023-08-21T13:33:25;1.80;;;1.30;;
26211;SDS011;13951;49.516;6.094;2023-08-21T13:35:58;3.65;;;1.50;;
26211;SDS011;13951;49.516;6.094;2023-08-21T13:38:31;4.55;;;1.42;;
26211;SDS011;13951;49.516;6.094;2023-08-21T13:41:05;1.50;;;1.27;;
26211;SDS011;13951;49.516;6.094;2023-08-21T13:43:39;2.15;;;1.50;;
26211;SDS011;13951;49.516;6.094;2023-08-21T13:46:12;1.77;;;1.30;;
26211;SDS011;13951;49.516;6.094;2023-08-21T13:48:45;1.73;;;1.50;;
26211;SDS011;13951;49.516;6.094;2023-08-21T13:51:18;2.88;;;1.55;;
26211;SDS011;13951;49.516;6.094;2023-08-21T13:53:53;1.67;;;1.58;;
26211;SDS011;13951;49.516;6.094;2023-08-21T13:56:26;1.88;;;1.45;;
26211;SDS011;13951;49.516;6.094;2023-08-21T13:59:01;2.00;;;1.52;;
26211;SDS011;13951;49.516;6.094;2023-08-21T14:01:34;3.03;;;1.30;;
26211;SDS011;13951;49.516;6.094;2023-08-21T14:04:08;2.97;;;1.40;;
26211;SDS011;13951;49.516;6.094;2023-08-21T14:06:41;2.35;;;1.30;;
26211;SDS011;13951;49.516;6.094;2023-08-21T14:09:14;2.17;;;1.38;;
26211;SDS011;13951;49.516;6.094;2023-08-21T14:11:47;1.63;;;1.30;;
26211;SDS011;13951;49.516;6.094;2023-08-21T14:14:20;4.10;;;1.50;;
26211;SDS011;13951;49.516;6.094;2023-08-21T14:16:53;1.23;;;1.13;;
26211;SDS011;13951;49.516;6.094;2023-08-21T14:19:26;3.13;;;1.50;;
26211;SDS011;13951;49.516;6.094;2023-08-21T14:21:59;1.40;;;1.30;;
26211;SDS011;13951;49.516;6.094;2023-08-21T14:24:33;3.42;;;1.50;;
26211;SDS011;13951;49.516;6.094;2023-08-21T14:27:06;1.45;;;1.30;;
26211;SDS011;13951;49.516;6.094;2023-08-21T14:29:39;2.83;;;1.40;;
26211;SDS011;13951;49.516;6.094;2023-08-21T14:32:15;2.33;;;1.40;;
26211;SDS011;13951;49.516;6.094;2023-08-21T14:34:48;2.40;;;1.50;;
26211;SDS011;13951;49.516;6.094;2023-08-21T14:37:21;1.35;;;1.20;;
26211;SDS011;13951;49.516;6.094;2023-08-21T14:39:56;1.90;;;1.30;;
26211;SDS011;13951;49.516;6.094;2023-08-21T14:42:29;2.60;;;1.40;;
26211;SDS011;13951;49.516;6.094;2023-08-21T14:45:02;2.90;;;1.70;;
26211;SDS011;13951;49.516;6.094;2023-08-21T14:47:39;3.60;;;1.30;;
26211;SDS011;13951;49.516;6.094;2023-08-21T14:50:12;3.45;;;1.58;;
26211;SDS011;13951;49.516;6.094;2023-08-21T14:52:45;4.57;;;1.40;;
26211;SDS011;13951;49.516;6.094;2023-08-21T14:55:20;2.55;;;1.45;;
26211;SDS011;13951;49.516;6.094;2023-08-21T14:57:53;2.28;;;1.70;;
26211;SDS011;13951;49.516;6.094;2023-08-21T15:00:26;4.03;;;1.80;;
26211;SDS011;13951;49.516;6.094;2023-08-21T15:02:59;1.35;;;1.25;;
26211;SDS011;13951;49.516;6.094;2023-08-21T15:05:33;1.42;;;1.30;;
26211;SDS011;13951;49.516;6.094;2023-08-21T15:08:06;4.18;;;1.48;;
26211;SDS011;13951;49.516;6.094;2023-08-21T15:10:39;3.40;;;1.20;;
26211;SDS011;13951;49.516;6.094;2023-08-21T15:13:12;5.03;;;1.52;;
26211;SDS011;13951;49.516;6.094;2023-08-21T15:15:45;3.13;;;1.80;;
26211;SDS011;13951;49.516;6.094;2023-08-21T15:18:19;5.43;;;3.72;;
26211;SDS011;13951;49.516;6.094;2023-08-21T15:20:52;3.38;;;2.38;;
26211;SDS011;13951;49.516;6.094;2023-08-21T15:23:25;3.40;;;1.85;;
26211;SDS011;13951;49.516;6.094;2023-08-21T15:25:58;2.13;;;1.60;;
26211;SDS011;13951;49.516;6.094;2023-08-21T15:28:31;5.60;;;1.98;;
26211;SDS011;13951;49.516;6.094;2023-08-21T15:31:04;5.03;;;1.90;;
26211;SDS011;13951;49.516;6.094;2023-08-21T15:33:39;7.65;;;2.30;;
26211;SDS011;13951;49.516;6.094;2023-08-21T15:36:12;3.38;;;1.90;;